sensor_id;sensor_type;location;lat;lon;timestamp;P1;durP1;ratioP1;P2;durP2;ratioP2
51491;SDS011;37569;50.548;8.778;2023-01-13T00:00:29;4.1;;;1.6;;
51491;SDS011;37569;50.548;8.778;2023-01-13T00:05:29;2;;;1.5;;
51491;SDS011;37569;50.548;8.778;2023-01-13T00:10:29;1.8;;;1.5;;
51491;SDS011;37569;50.548;8.778;2023-01-13T00:15:30;3;;;1.5;;
51491;SDS011;37569;50.548;8.778;2023-01-13T00:20:30;2.2;;;1.6;;
51491;SDS011;37569;50.548;8.778;2023-01-13T00:25:31;3.3;;;1.6;;
51491;SDS011;37569;50.548;8.778;2023-01-13T00:30:31;2;;;1.3;;
51491;SDS011;37569;50.548;8.778;2023-01-13T00:35:31;2.2;;;1.2;;
51491;SDS011;37569;50.548;8.778;2023-01-13T00:40:31;2;;;1.1;;
51491;SDS011;37569;50.548;8.778;2023-01-13T00:45:32;3.1;;;1.1;;
51491;SDS011;37569;50.548;8.778;2023-01-13T00:50:32;2.7;;;1.1;;
51491;SDS011;37569;50.548;8.778;2023-01-13T00:55:32;1.2;;;1.1;;
51491;SDS011;37569;50.548;8.778;2023-01-13T01:00:33;1.3;;;1.1;;
51491;SDS011;37569;50.548;8.778;2023-01-13T01:05:33;2.7;;;1.2;;
51491;SDS011;37569;50.548;8.778;2023-01-13T01:10:33;1.6;;;1.2;;
51491;SDS011;37569;50.548;8.778;2023-01-13T01:15:34;2.6;;;1.3;;
51491;SDS011;37569;50.548;8.778;2023-01-13T01:20:35;1.6;;;1.2;;
51491;SDS011;37569;50.548;8.778;2023-01-13T01:25:34;1.8;;;1.2;;
51491;SDS011;37569;50.548;8.778;2023-01-13T01:30:37;2.3;;;1.5;;
51491;SDS011;37569;50.548;8.778;2023-01-13T01:35:37;2.4;;;1.4;;
51491;SDS011;37569;50.548;8.778;2023-01-13T01:40:35;2.8;;;1.4;;
51491;SDS011;37569;50.548;8.778;2023-01-13T01:45:35;2.9;;;1.4;;
51491;SDS011;37569;50.548;8.778;2023-01-13T01:50:36;2.3;;;1.3;;
51491;SDS011;37569;50.548;8.778;2023-01-13T01:55:36;1.5;;;1.1;;
51491;SDS011;37569;50.548;8.778;2023-01-13T02:00:36;3.4;;;1.2;;
51491;SDS011;37569;50.548;8.778;2023-01-13T02:05:37;1.7;;;1;;
51491;SDS011;37569;50.548;8.778;2023-01-13T02:10:37;2.3;;;1.1;;
51491;SDS011;37569;50.548;8.778;2023-01-13T02:15:39;2.4;;;1.1;;
51491;SDS011;37569;50.548;8.778;2023-01-13T02:25:43;2.5;;;1.2;;
51491;SDS011;37569;50.548;8.778;2023-01-13T02:30:40;2.2;;;1.2;;
51491;SDS011;37569;50.548;8.778;2023-01-13T02:35:41;2.2;;;1.2;;
51491;SDS011;37569;50.548;8.778;2023-01-13T02:40:39;2.5;;;1.2;;
51491;SDS011;37569;50.548;8.778;2023-01-13T02:45:40;2.1;;;1.1;;
51491;SDS011;37569;50.548;8.778;2023-01-13T02:50:41;2.9;;;1.2;;
51491;SDS011;37569;50.548;8.778;2023-01-13T02:55:42;1.4;;;1;;
51491;SDS011;37569;50.548;8.778;2023-01-13T03:00:40;1.6;;;0.9;;
51491;SDS011;37569;50.548;8.778;2023-01-13T03:05:41;1.1;;;1;;
51491;SDS011;37569;50.548;8.778;2023-01-13T03:10:43;1.6;;;1;;
51491;SDS011;37569;50.548;8.778;2023-01-13T03:15:42;1.5;;;0.9;;
51491;SDS011;37569;50.548;8.778;2023-01-13T03:20:42;2;;;0.8;;
51491;SDS011;37569;50.548;8.778;2023-01-13T03:25:44;1;;;0.9;;
51491;SDS011;37569;50.548;8.778;2023-01-13T03:30:43;1.7;;;1;;
51491;SDS011;37569;50.548;8.778;2023-01-13T03:35:43;2.4;;;1;;
51491;SDS011;37569;50.548;8.778;2023-01-13T03:40:44;1.4;;;0.9;;
51491;SDS011;37569;50.548;8.778;2023-01-13T03:45:43;2.3;;;0.9;;
51491;SDS011;37569;50.548;8.778;2023-01-13T03:50:45;2.8;;;1.1;;
51491;SDS011;37569;50.548;8.778;2023-01-13T03:55:45;1.2;;;0.9;;
51491;SDS011;37569;50.548;8.778;2023-01-13T04:00:45;1.8;;;0.9;;
51491;SDS011;37569;50.548;8.778;2023-01-13T04:05:46;2.7;;;0.9;;
51491;SDS011;37569;50.548;8.778;2023-01-13T04:10:48;0.8;;;0.5;;
51491;SDS011;37569;50.548;8.778;2023-01-13T04:15:45;1;;;0.5;;
51491;SDS011;37569;50.548;8.778;2023-01-13T04:20:47;1;;;0.5;;
51491;SDS011;37569;50.548;8.778;2023-01-13T04:25:46;0.4;;;0.4;;
51491;SDS011;37569;50.548;8.778;2023-01-13T04:30:46;1.5;;;0.5;;
51491;SDS011;37569;50.548;8.778;2023-01-13T04:35:47;1.5;;;0.6;;
51491;SDS011;37569;50.548;8.778;2023-01-13T04:40:47;1.5;;;0.6;;
51491;SDS011;37569;50.548;8.778;2023-01-13T04:45:47;0.7;;;0.5;;
51491;SDS011;37569;50.548;8.778;2023-01-13T04:50:47;1.8;;;0.7;;
51491;SDS011;37569;50.548;8.778;2023-01-13T04:55:48;1.4;;;0.6;;
51491;SDS011;37569;50.548;8.778;2023-01-13T05:00:48;1.8;;;0.7;;
51491;SDS011;37569;50.548;8.778;2023-01-13T05:05:49;1.3;;;0.7;;
51491;SDS011;37569;50.548;8.778;2023-01-13T05:10:49;2.6;;;0.6;;
51491;SDS011;37569;50.548;8.778;2023-01-13T05:15:49;1.3;;;0.7;;
51491;SDS011;37569;50.548;8.778;2023-01-13T05:20:49;2;;;0.9;;
51491;SDS011;37569;50.548;8.778;2023-01-13T05:25:50;2.6;;;0.7;;
51491;SDS011;37569;50.548;8.778;2023-01-13T05:30:50;1.8;;;1;;
51491;SDS011;37569;50.548;8.778;2023-01-13T05:35:50;2;;;1;;
51491;SDS011;37569;50.548;8.778;2023-01-13T05:40:50;2.6;;;0.9;;
51491;SDS011;37569;50.548;8.778;2023-01-13T05:45:52;3.3;;;0.9;;
51491;SDS011;37569;50.548;8.778;2023-01-13T05:50:51;1.6;;;0.7;;
51491;SDS011;37569;50.548;8.778;2023-01-13T05:55:51;1.8;;;0.8;;
51491;SDS011;37569;50.548;8.778;2023-01-13T06:00:52;2.2;;;0.9;;
51491;SDS011;37569;50.548;8.778;2023-01-13T06:05:52;1.2;;;0.9;;
51491;SDS011;37569;50.548;8.778;2023-01-13T06:10:52;1.6;;;1.2;;
51491;SDS011;37569;50.548;8.778;2023-01-13T06:15:54;2.4;;;1.3;;
51491;SDS011;37569;50.548;8.778;2023-01-13T06:20:53;2.6;;;1.3;;
51491;SDS011;37569;50.548;8.778;2023-01-13T06:25:55;2.7;;;1;;
51491;SDS011;37569;50.548;8.778;2023-01-13T06:30:54;2.8;;;0.8;;
51491;SDS011;37569;50.548;8.778;2023-01-13T06:35:54;2.2;;;1;;
51491;SDS011;37569;50.548;8.778;2023-01-13T06:40:54;2.1;;;1;;
51491;SDS011;37569;50.548;8.778;2023-01-13T06:45:54;2.4;;;0.9;;
51491;SDS011;37569;50.548;8.778;2023-01-13T06:50:54;2.8;;;1;;
51491;SDS011;37569;50.548;8.778;2023-01-13T06:55:54;7;;;3.1;;
51491;SDS011;37569;50.548;8.778;2023-01-13T07:00:58;19.9;;;9.4;;
51491;SDS011;37569;50.548;8.778;2023-01-13T07:05:55;6.7;;;3;;
51491;SDS011;37569;50.548;8.778;2023-01-13T07:10:55;7.8;;;4.6;;
51491;SDS011;37569;50.548;8.778;2023-01-13T07:15:56;21.5;;;11.4;;
51491;SDS011;37569;50.548;8.778;2023-01-13T07:20:56;15.7;;;7.2;;
51491;SDS011;37569;50.548;8.778;2023-01-13T07:25:56;13.1;;;6.1;;
51491;SDS011;37569;50.548;8.778;2023-01-13T07:30:56;21.2;;;10.8;;
51491;SDS011;37569;50.548;8.778;2023-01-13T07:35:58;21.9;;;10.5;;
51491;SDS011;37569;50.548;8.778;2023-01-13T07:40:57;4.7;;;1.6;;
51491;SDS011;37569;50.548;8.778;2023-01-13T07:45:57;23;;;14.2;;
51491;SDS011;37569;50.548;8.778;2023-01-13T07:51:00;7;;;3.6;;
51491;SDS011;37569;50.548;8.778;2023-01-13T07:55:58;3.2;;;1.8;;
51491;SDS011;37569;50.548;8.778;2023-01-13T08:00:58;5.1;;;2.2;;
51491;SDS011;37569;50.548;8.778;2023-01-13T08:05:59;6.2;;;2.9;;
51491;SDS011;37569;50.548;8.778;2023-01-13T08:10:58;4.8;;;1.9;;
51491;SDS011;37569;50.548;8.778;2023-01-13T08:15:59;5.9;;;2.4;;
51491;SDS011;37569;50.548;8.778;2023-01-13T08:21:00;4.4;;;1.8;;
51491;SDS011;37569;50.548;8.778;2023-01-13T08:25:59;3.1;;;1.2;;
51491;SDS011;37569;50.548;8.778;2023-01-13T08:31:00;5.6;;;1.6;;
51491;SDS011;37569;50.548;8.778;2023-01-13T08:36:01;3.4;;;1.2;;
51491;SDS011;37569;50.548;8.778;2023-01-13T08:41:00;3.9;;;1.4;;
51491;SDS011;37569;50.548;8.778;2023-01-13T08:46:01;3.8;;;1.6;;
51491;SDS011;37569;50.548;8.778;2023-01-13T08:51:01;4.2;;;1.5;;
51491;SDS011;37569;50.548;8.778;2023-01-13T08:56:02;3.6;;;1.6;;
51491;SDS011;37569;50.548;8.778;2023-01-13T09:01:03;3.9;;;1.5;;
51491;SDS011;37569;50.548;8.778;2023-01-13T09:06:02;3.6;;;1.2;;
51491;SDS011;37569;50.548;8.778;2023-01-13T09:11:02;4.7;;;1.3;;
51491;SDS011;37569;50.548;8.778;2023-01-13T09:16:02;3;;;1.2;;
51491;SDS011;37569;50.548;8.778;2023-01-13T09:21:02;3.4;;;1.1;;
51491;SDS011;37569;50.548;8.778;2023-01-13T09:26:03;3.1;;;1.3;;
51491;SDS011;37569;50.548;8.778;2023-01-13T09:31:03;2.8;;;1.3;;
51491;SDS011;37569;50.548;8.778;2023-01-13T09:36:03;2.5;;;0.9;;
51491;SDS011;37569;50.548;8.778;2023-01-13T09:41:04;3.7;;;1.1;;
51491;SDS011;37569;50.548;8.778;2023-01-13T09:46:04;2.7;;;1;;
51491;SDS011;37569;50.548;8.778;2023-01-13T09:51:05;3.2;;;1.1;;
51491;SDS011;37569;50.548;8.778;2023-01-13T09:56:05;4.4;;;1.3;;
51491;SDS011;37569;50.548;8.778;2023-01-13T10:01:08;4.1;;;1.4;;
51491;SDS011;37569;50.548;8.778;2023-01-13T10:06:09;6.1;;;1.5;;
51491;SDS011;37569;50.548;8.778;2023-01-13T10:11:08;3.7;;;1.3;;
51491;SDS011;37569;50.548;8.778;2023-01-13T10:16:15;5.2;;;1.3;;
51491;SDS011;37569;50.548;8.778;2023-01-13T10:21:10;4.2;;;1.6;;
51491;SDS011;37569;50.548;8.778;2023-01-13T10:26:09;4.5;;;1.3;;
51491;SDS011;37569;50.548;8.778;2023-01-13T10:31:09;5.9;;;2.1;;
51491;SDS011;37569;50.548;8.778;2023-01-13T10:36:11;4.8;;;1.4;;
51491;SDS011;37569;50.548;8.778;2023-01-13T10:41:16;6.2;;;1.7;;
51491;SDS011;37569;50.548;8.778;2023-01-13T10:46:09;6.5;;;1.6;;
51491;SDS011;37569;50.548;8.778;2023-01-13T10:51:09;5;;;1.4;;
51491;SDS011;37569;50.548;8.778;2023-01-13T10:56:09;4.5;;;1.4;;
51491;SDS011;37569;50.548;8.778;2023-01-13T11:01:15;6.1;;;1.7;;
51491;SDS011;37569;50.548;8.778;2023-01-13T11:06:17;6.1;;;1.6;;
51491;SDS011;37569;50.548;8.778;2023-01-13T11:11:27;4.2;;;1.3;;
51491;SDS011;37569;50.548;8.778;2023-01-13T11:16:11;4.4;;;1.5;;
51491;SDS011;37569;50.548;8.778;2023-01-13T11:21:13;5.6;;;1.6;;
51491;SDS011;37569;50.548;8.778;2023-01-13T11:26:11;7.5;;;1.8;;
51491;SDS011;37569;50.548;8.778;2023-01-13T11:31:13;5;;;1.8;;
51491;SDS011;37569;50.548;8.778;2023-01-13T11:36:12;5.4;;;1.4;;
51491;SDS011;37569;50.548;8.778;2023-01-13T11:41:21;5.6;;;1.8;;
51491;SDS011;37569;50.548;8.778;2023-01-13T11:46:12;5.3;;;1.6;;
51491;SDS011;37569;50.548;8.778;2023-01-13T11:51:15;5.7;;;1.5;;
51491;SDS011;37569;50.548;8.778;2023-01-13T11:56:17;7.9;;;1.9;;
51491;SDS011;37569;50.548;8.778;2023-01-13T12:01:15;7.3;;;1.7;;
51491;SDS011;37569;50.548;8.778;2023-01-13T12:06:17;7.7;;;2;;
51491;SDS011;37569;50.548;8.778;2023-01-13T12:11:15;7.8;;;2.2;;
51491;SDS011;37569;50.548;8.778;2023-01-13T12:16:19;6.2;;;2.1;;
51491;SDS011;37569;50.548;8.778;2023-01-13T12:21:17;7.2;;;1.9;;
51491;SDS011;37569;50.548;8.778;2023-01-13T12:26:15;6.3;;;2.4;;
51491;SDS011;37569;50.548;8.778;2023-01-13T12:31:15;15.5;;;4.8;;
51491;SDS011;37569;50.548;8.778;2023-01-13T12:36:17;7.6;;;2.5;;
51491;SDS011;37569;50.548;8.778;2023-01-13T12:41:20;7.4;;;2.1;;
51491;SDS011;37569;50.548;8.778;2023-01-13T12:46:32;7.8;;;2.4;;
51491;SDS011;37569;50.548;8.778;2023-01-13T12:51:21;9.2;;;3;;
51491;SDS011;37569;50.548;8.778;2023-01-13T12:56:48;6.4;;;2.1;;
51491;SDS011;37569;50.548;8.778;2023-01-13T13:01:17;6.3;;;2.4;;
51491;SDS011;37569;50.548;8.778;2023-01-13T13:06:17;6.8;;;2.8;;
51491;SDS011;37569;50.548;8.778;2023-01-13T13:11:21;7.3;;;2;;
51491;SDS011;37569;50.548;8.778;2023-01-13T13:16:35;7.6;;;1.6;;
51491;SDS011;37569;50.548;8.778;2023-01-13T13:21:18;6.1;;;2;;
51491;SDS011;37569;50.548;8.778;2023-01-13T13:26:21;8.7;;;2.6;;
51491;SDS011;37569;50.548;8.778;2023-01-13T13:31:22;7.1;;;2.2;;
51491;SDS011;37569;50.548;8.778;2023-01-13T13:36:25;7.6;;;2.5;;
51491;SDS011;37569;50.548;8.778;2023-01-13T13:41:20;5.8;;;2.3;;
51491;SDS011;37569;50.548;8.778;2023-01-13T13:46:21;7;;;1.7;;
51491;SDS011;37569;50.548;8.778;2023-01-13T13:51:22;6;;;2.3;;
51491;SDS011;37569;50.548;8.778;2023-01-13T13:56:22;5.7;;;1.4;;
51491;SDS011;37569;50.548;8.778;2023-01-13T14:01:21;7.2;;;1.8;;
51491;SDS011;37569;50.548;8.778;2023-01-13T14:06:21;6.6;;;1.7;;
51491;SDS011;37569;50.548;8.778;2023-01-13T14:11:24;5.3;;;1.6;;
51491;SDS011;37569;50.548;8.778;2023-01-13T14:16:22;4.7;;;1.6;;
51491;SDS011;37569;50.548;8.778;2023-01-13T14:21:23;4.2;;;1.6;;
51491;SDS011;37569;50.548;8.778;2023-01-13T14:26:23;3.3;;;1.4;;
51491;SDS011;37569;50.548;8.778;2023-01-13T14:31:23;6.1;;;1.4;;
51491;SDS011;37569;50.548;8.778;2023-01-13T14:36:24;4.6;;;1.4;;
51491;SDS011;37569;50.548;8.778;2023-01-13T14:41:24;3.9;;;1.2;;
51491;SDS011;37569;50.548;8.778;2023-01-13T14:46:24;5.3;;;1.6;;
51491;SDS011;37569;50.548;8.778;2023-01-13T14:51:25;3.8;;;1.5;;
51491;SDS011;37569;50.548;8.778;2023-01-13T14:56:42;4.2;;;1.6;;
51491;SDS011;37569;50.548;8.778;2023-01-13T15:01:26;4.5;;;1.5;;
51491;SDS011;37569;50.548;8.778;2023-01-13T15:06:25;4.3;;;1.4;;
51491;SDS011;37569;50.548;8.778;2023-01-13T15:11:26;5;;;1.7;;
51491;SDS011;37569;50.548;8.778;2023-01-13T15:16:26;5.8;;;1.6;;
51491;SDS011;37569;50.548;8.778;2023-01-13T15:21:26;5;;;1.6;;
51491;SDS011;37569;50.548;8.778;2023-01-13T15:26:27;6;;;1.4;;
51491;SDS011;37569;50.548;8.778;2023-01-13T15:31:27;4;;;1.6;;
51491;SDS011;37569;50.548;8.778;2023-01-13T15:36:27;5.8;;;1.6;;
51491;SDS011;37569;50.548;8.778;2023-01-13T15:41:27;6.6;;;1.6;;
51491;SDS011;37569;50.548;8.778;2023-01-13T15:46:28;6.4;;;1.4;;
51491;SDS011;37569;50.548;8.778;2023-01-13T15:51:28;7.1;;;2.2;;
51491;SDS011;37569;50.548;8.778;2023-01-13T15:56:28;4.5;;;1.6;;
51491;SDS011;37569;50.548;8.778;2023-01-13T16:01:28;6.1;;;1.4;;
51491;SDS011;37569;50.548;8.778;2023-01-13T16:06:29;4.5;;;1.4;;
51491;SDS011;37569;50.548;8.778;2023-01-13T16:11:29;5.3;;;1.8;;
51491;SDS011;37569;50.548;8.778;2023-01-13T16:16:29;5.7;;;1.5;;
51491;SDS011;37569;50.548;8.778;2023-01-13T16:21:29;7.9;;;1.8;;
51491;SDS011;37569;50.548;8.778;2023-01-13T16:26:30;5.5;;;2.4;;
51491;SDS011;37569;50.548;8.778;2023-01-13T16:31:31;4.7;;;1.5;;
51491;SDS011;37569;50.548;8.778;2023-01-13T16:36:32;4.2;;;1.4;;
51491;SDS011;37569;50.548;8.778;2023-01-13T16:41:31;3.5;;;1.7;;
51491;SDS011;37569;50.548;8.778;2023-01-13T16:46:31;3.8;;;1.6;;
51491;SDS011;37569;50.548;8.778;2023-01-13T16:51:31;5.8;;;2.9;;
51491;SDS011;37569;50.548;8.778;2023-01-13T16:56:32;6;;;2.7;;
51491;SDS011;37569;50.548;8.778;2023-01-13T17:01:32;5.7;;;2;;
51491;SDS011;37569;50.548;8.778;2023-01-13T17:06:33;6.4;;;1.9;;
51491;SDS011;37569;50.548;8.778;2023-01-13T17:11:32;4.8;;;2;;
51491;SDS011;37569;50.548;8.778;2023-01-13T17:16:32;5.5;;;2.2;;
51491;SDS011;37569;50.548;8.778;2023-01-13T17:21:32;7.7;;;2.3;;
51491;SDS011;37569;50.548;8.778;2023-01-13T17:26:33;9.3;;;2.2;;
51491;SDS011;37569;50.548;8.778;2023-01-13T17:31:33;8;;;3.5;;
51491;SDS011;37569;50.548;8.778;2023-01-13T17:36:33;9.3;;;2.2;;
51491;SDS011;37569;50.548;8.778;2023-01-13T17:41:33;7.5;;;1.9;;
51491;SDS011;37569;50.548;8.778;2023-01-13T17:46:34;5.4;;;2;;
51491;SDS011;37569;50.548;8.778;2023-01-13T17:51:34;5.8;;;2.3;;
51491;SDS011;37569;50.548;8.778;2023-01-13T17:56:34;17.2;;;6.7;;
51491;SDS011;37569;50.548;8.778;2023-01-13T18:01:34;27.4;;;12.2;;
51491;SDS011;37569;50.548;8.778;2023-01-13T18:06:35;10.7;;;3.9;;
51491;SDS011;37569;50.548;8.778;2023-01-13T18:11:35;11.6;;;4.6;;
51491;SDS011;37569;50.548;8.778;2023-01-13T18:16:35;6.4;;;2.1;;
51491;SDS011;37569;50.548;8.778;2023-01-13T18:21:35;11.1;;;2.8;;
51491;SDS011;37569;50.548;8.778;2023-01-13T18:26:36;8.3;;;2.3;;
51491;SDS011;37569;50.548;8.778;2023-01-13T18:31:36;9.7;;;2.7;;
51491;SDS011;37569;50.548;8.778;2023-01-13T18:36:37;6;;;1.9;;
51491;SDS011;37569;50.548;8.778;2023-01-13T18:41:37;7.6;;;2;;
51491;SDS011;37569;50.548;8.778;2023-01-13T18:46:37;9.5;;;2;;
51491;SDS011;37569;50.548;8.778;2023-01-13T18:51:37;9.1;;;2.4;;
51491;SDS011;37569;50.548;8.778;2023-01-13T18:56:37;6.4;;;2;;
51491;SDS011;37569;50.548;8.778;2023-01-13T19:01:38;9.1;;;2.6;;
51491;SDS011;37569;50.548;8.778;2023-01-13T19:06:38;12;;;3.3;;
51491;SDS011;37569;50.548;8.778;2023-01-13T19:11:38;8.8;;;3.2;;
51491;SDS011;37569;50.548;8.778;2023-01-13T19:16:38;10.8;;;3.7;;
51491;SDS011;37569;50.548;8.778;2023-01-13T19:21:39;9;;;3;;
51491;SDS011;37569;50.548;8.778;2023-01-13T19:26:39;8.9;;;2.5;;
51491;SDS011;37569;50.548;8.778;2023-01-13T19:31:39;7.4;;;2.6;;
51491;SDS011;37569;50.548;8.778;2023-01-13T19:36:39;8.3;;;2.6;;
51491;SDS011;37569;50.548;8.778;2023-01-13T19:41:40;11.3;;;2.7;;
51491;SDS011;37569;50.548;8.778;2023-01-13T19:46:40;6.2;;;2.2;;
51491;SDS011;37569;50.548;8.778;2023-01-13T19:51:40;19.5;;;9.4;;
51491;SDS011;37569;50.548;8.778;2023-01-13T19:56:41;9.7;;;2.4;;
51491;SDS011;37569;50.548;8.778;2023-01-13T20:01:41;8;;;2.3;;
51491;SDS011;37569;50.548;8.778;2023-01-13T20:06:41;8.4;;;2;;
51491;SDS011;37569;50.548;8.778;2023-01-13T20:11:41;6.7;;;2.5;;
51491;SDS011;37569;50.548;8.778;2023-01-13T20:16:41;10.1;;;2.3;;
51491;SDS011;37569;50.548;8.778;2023-01-13T20:21:42;9.2;;;2.2;;
51491;SDS011;37569;50.548;8.778;2023-01-13T20:26:42;8.7;;;2.3;;
51491;SDS011;37569;50.548;8.778;2023-01-13T20:31:42;8.7;;;2.3;;
51491;SDS011;37569;50.548;8.778;2023-01-13T20:36:43;7.6;;;2.4;;
51491;SDS011;37569;50.548;8.778;2023-01-13T20:41:43;8.8;;;2.4;;
51491;SDS011;37569;50.548;8.778;2023-01-13T20:46:43;10.3;;;2.2;;
51491;SDS011;37569;50.548;8.778;2023-01-13T20:51:43;6.2;;;1.8;;
51491;SDS011;37569;50.548;8.778;2023-01-13T20:56:43;4.7;;;2;;
51491;SDS011;37569;50.548;8.778;2023-01-13T21:01:43;6;;;1.8;;
51491;SDS011;37569;50.548;8.778;2023-01-13T21:06:44;4.6;;;1.6;;
51491;SDS011;37569;50.548;8.778;2023-01-13T21:11:44;3.8;;;1.5;;
51491;SDS011;37569;50.548;8.778;2023-01-13T21:16:44;5;;;1.5;;
51491;SDS011;37569;50.548;8.778;2023-01-13T21:21:44;3.4;;;1.4;;
51491;SDS011;37569;50.548;8.778;2023-01-13T21:26:44;6.1;;;1.6;;
51491;SDS011;37569;50.548;8.778;2023-01-13T21:31:45;5.8;;;1.9;;
51491;SDS011;37569;50.548;8.778;2023-01-13T21:36:45;7.2;;;2;;
51491;SDS011;37569;50.548;8.778;2023-01-13T21:41:45;8.4;;;2;;
51491;SDS011;37569;50.548;8.778;2023-01-13T21:46:45;9.6;;;2.5;;
51491;SDS011;37569;50.548;8.778;2023-01-13T21:51:46;6.8;;;2;;
51491;SDS011;37569;50.548;8.778;2023-01-13T21:56:46;6.9;;;1.9;;
51491;SDS011;37569;50.548;8.778;2023-01-13T22:01:46;6.2;;;1.9;;
51491;SDS011;37569;50.548;8.778;2023-01-13T22:06:46;6.1;;;1.8;;
51491;SDS011;37569;50.548;8.778;2023-01-13T22:11:46;6.2;;;1.7;;
51491;SDS011;37569;50.548;8.778;2023-01-13T22:16:47;6.8;;;1.8;;
51491;SDS011;37569;50.548;8.778;2023-01-13T22:21:47;8.2;;;2;;
51491;SDS011;37569;50.548;8.778;2023-01-13T22:26:47;4.7;;;1.4;;
51491;SDS011;37569;50.548;8.778;2023-01-13T22:31:47;7.8;;;2.1;;
51491;SDS011;37569;50.548;8.778;2023-01-13T22:36:48;5.1;;;1.9;;
51491;SDS011;37569;50.548;8.778;2023-01-13T22:41:48;8.1;;;1.9;;
51491;SDS011;37569;50.548;8.778;2023-01-13T22:46:48;5.6;;;1.9;;
51491;SDS011;37569;50.548;8.778;2023-01-13T22:51:48;6.3;;;1.9;;
51491;SDS011;37569;50.548;8.778;2023-01-13T22:56:48;6.3;;;1.9;;
51491;SDS011;37569;50.548;8.778;2023-01-13T23:01:49;5.5;;;1.6;;
51491;SDS011;37569;50.548;8.778;2023-01-13T23:06:49;7;;;1.8;;
51491;SDS011;37569;50.548;8.778;2023-01-13T23:11:49;6.9;;;2;;
51491;SDS011;37569;50.548;8.778;2023-01-13T23:16:49;8.8;;;2.2;;
51491;SDS011;37569;50.548;8.778;2023-01-13T23:21:50;7.9;;;2.1;;
51491;SDS011;37569;50.548;8.778;2023-01-13T23:26:50;8;;;2;;
51491;SDS011;37569;50.548;8.778;2023-01-13T23:31:50;7.7;;;2;;
51491;SDS011;37569;50.548;8.778;2023-01-13T23:36:50;6.7;;;2.1;;
51491;SDS011;37569;50.548;8.778;2023-01-13T23:41:51;7.2;;;2;;
51491;SDS011;37569;50.548;8.778;2023-01-13T23:46:51;6.8;;;1.9;;
51491;SDS011;37569;50.548;8.778;2023-01-13T23:51:51;7;;;1.9;;
51491;SDS011;37569;50.548;8.778;2023-01-13T23:56:51;8.4;;;1.8;;
